Terminal Aerodrome Forecast
Issued by NWS Binghamton, NY

Home | Current Version | Previous Version | Text Only | Print | Product List | Glossary On
Versions: 1 2 3 4 5 6 7 8 9 10 11 12 13 14 15 16 17 18 19 20
000
FTUS41 KBGM 011138
TAFAVP
TAF
KAVP 011138Z 0112/0212 VRB03KT P6SM SCT050 BKN100
     FM011400 27008G15KT P6SM SCT050
     FM020000 28004KT P6SM FEW250
     FM020900 17002KT 4SM BR SKC=

USA.gov is the U.S. government's official web portal to all federal, state and local government web resources and services.